createdAt,value
2018-08-09T00:02:45.542Z,17.10
2018-08-09T00:07:43.695Z,17.10
2018-08-09T00:10:13.164Z,17.10
2018-08-09T00:15:11.265Z,17.00
2018-08-09T00:17:40.805Z,17.00
2018-08-09T00:20:10.141Z,17.00
2018-08-09T00:30:07.103Z,17.00
2018-08-09T00:32:36.559Z,17.00
2018-08-09T00:35:05.904Z,17.00
2018-08-09T00:37:35.413Z,17.10
2018-08-09T00:47:31.550Z,17.10
2018-08-09T00:54:58.601Z,17.10
2018-08-09T00:59:56.692Z,17.00
2018-08-09T01:02:26.038Z,16.90
2018-08-09T01:07:24.185Z,16.80
2018-08-09T01:09:53.548Z,16.80
2018-08-09T01:12:22.833Z,16.70
2018-08-09T01:14:52.096Z,16.80
2018-08-09T01:22:19.112Z,16.70
2018-08-09T01:24:48.400Z,16.70
2018-08-09T01:27:17.676Z,16.80
2018-08-09T01:32:16.105Z,16.80
2018-08-09T01:34:45.459Z,16.80
2018-08-09T01:37:14.851Z,16.70
2018-08-09T01:39:44.296Z,16.70
2018-08-09T01:42:24.639Z,16.70
2018-08-09T01:44:54.150Z,16.60
2018-08-09T01:47:23.469Z,16.60
2018-08-09T01:54:50.660Z,16.50
2018-08-09T01:57:20.021Z,16.50
2018-08-09T01:59:49.449Z,16.50
2018-08-09T02:02:19.122Z,16.50
2018-08-09T02:04:48.726Z,16.40
2018-08-09T02:07:18.085Z,16.40
2018-08-09T02:09:47.341Z,16.40
2018-08-09T02:12:16.712Z,16.30
2018-08-09T02:17:15.051Z,16.40
2018-08-09T02:22:13.245Z,16.40
2018-08-09T02:27:11.378Z,16.40
2018-08-09T02:29:40.662Z,16.40
2018-08-09T02:32:10.018Z,16.30
2018-08-09T02:34:39.490Z,16.30
2018-08-09T02:37:08.844Z,16.30
2018-08-09T02:42:06.937Z,16.30
2018-08-09T02:47:05.089Z,16.20
2018-08-09T02:59:29.620Z,16.00
2018-08-09T03:01:58.952Z,16.20
2018-08-09T03:06:57.033Z,16.20
2018-08-09T03:09:26.400Z,16.30
2018-08-09T03:14:24.470Z,16.30
2018-08-09T03:16:53.785Z,16.30
2018-08-09T03:21:52.225Z,16.30
2018-08-09T03:26:50.425Z,16.20
2018-08-09T03:29:19.760Z,16.20
2018-08-09T03:31:49.065Z,16.20
2018-08-09T03:39:16.399Z,16.20
2018-08-09T03:49:12.132Z,16.20
2018-08-09T04:09:08.913Z,16.00
2018-08-09T04:11:38.922Z,15.80
2018-08-09T04:14:08.357Z,15.90
2018-08-09T04:21:35.339Z,15.90
2018-08-09T04:26:33.486Z,15.90
2018-08-09T04:29:02.750Z,15.80
2018-08-09T04:38:58.479Z,15.80
2018-08-09T04:48:54.413Z,15.70
2018-08-09T04:51:23.711Z,15.70
2018-08-09T04:53:53.000Z,15.70
2018-08-09T04:56:22.269Z,15.70
2018-08-09T04:58:51.541Z,15.70
2018-08-09T05:01:20.829Z,15.60
2018-08-09T05:08:47.668Z,15.50
2018-08-09T05:18:43.393Z,15.40
2018-08-09T05:31:07.968Z,15.40
2018-08-09T05:36:06.242Z,15.40
2018-08-09T05:43:36.287Z,15.40
2018-08-09T05:48:34.596Z,15.40
2018-08-09T06:00:59.277Z,15.20
2018-08-09T06:05:57.730Z,15.30
2018-08-09T06:10:55.877Z,15.30
2018-08-09T06:18:22.868Z,15.30
2018-08-09T06:23:21.012Z,15.20
2018-08-09T06:38:16.469Z,15.10
2018-08-09T06:40:47.074Z,15.10
2018-08-09T06:43:16.382Z,15.10
2018-08-09T06:48:14.480Z,15.00
2018-08-09T07:10:40.829Z,15.00
2018-08-09T07:20:36.746Z,14.90
2018-08-09T07:25:36.364Z,14.90
2018-08-09T07:28:06.955Z,14.90
2018-08-09T07:30:36.344Z,14.90
2018-08-09T07:35:34.454Z,14.90
2018-08-09T07:38:03.785Z,15.00
2018-08-09T07:47:59.632Z,15.00
2018-08-09T07:52:57.794Z,15.00
2018-08-09T07:55:27.115Z,15.10
2018-08-09T07:57:56.416Z,15.00
2018-08-09T08:05:26.943Z,15.00
2018-08-09T08:10:25.100Z,15.00
2018-08-09T08:20:21.084Z,15.00
2018-08-09T08:25:19.336Z,14.90
2018-08-09T08:27:48.762Z,14.80
2018-08-09T08:30:18.136Z,14.90
2018-08-09T08:32:47.527Z,14.90
2018-08-09T08:37:45.853Z,15.00
2018-08-09T08:40:15.237Z,14.90
2018-08-09T08:42:44.738Z,14.90
2018-08-09T08:50:13.425Z,14.70
2018-08-09T08:57:41.956Z,14.80
2018-08-09T09:00:12.448Z,14.80
2018-08-09T09:07:41.992Z,14.80
2018-08-09T09:12:42.835Z,14.80
2018-08-09T09:38:29.085Z,14.90
2018-08-09T09:49:30.277Z,14.70
2018-08-09T09:52:03.626Z,14.90
2018-08-09T09:57:06.734Z,14.90
2018-08-09T10:07:11.469Z,15.10
2018-08-09T10:09:43.744Z,15.00
2018-08-09T10:19:45.802Z,15.00
2018-08-09T10:22:19.134Z,15.00
2018-08-09T10:29:54.653Z,14.90
2018-08-09T10:32:25.617Z,14.90
2018-08-09T10:34:59.025Z,15.00
2018-08-09T10:49:56.882Z,15.00
2018-08-09T10:52:27.027Z,15.00
2018-08-09T11:00:05.746Z,15.10
2018-08-09T11:05:37.336Z,15.20
2018-08-09T11:15:34.203Z,15.50
2018-08-09T11:28:08.698Z,15.90
2018-08-09T11:30:39.342Z,16.20
2018-08-09T11:38:12.162Z,16.40
2018-08-09T11:50:41.373Z,16.30
2018-08-09T11:55:40.754Z,16.30
2018-08-09T12:30:33.132Z,16.30
2018-08-09T12:47:56.148Z,16.20
2018-08-09T12:55:24.002Z,16.10
2018-08-09T13:02:52.692Z,16.00
2018-08-09T13:05:22.065Z,16.00
2018-08-09T13:12:49.245Z,15.90
2018-08-09T13:15:19.462Z,15.90
2018-08-09T13:17:49.388Z,16.00
2018-08-09T13:32:47.793Z,16.70
2018-08-09T13:50:13.109Z,16.00
2018-08-09T13:55:13.572Z,15.80
2018-08-09T14:02:43.350Z,15.50
2018-08-09T14:05:12.832Z,15.50
2018-08-09T14:10:12.371Z,15.40
2018-08-09T14:12:42.582Z,15.40
2018-08-09T14:17:41.703Z,15.80
2018-08-09T14:20:13.653Z,15.90
2018-08-09T14:40:10.545Z,18.10
2018-08-09T14:47:38.815Z,17.60
2018-08-09T14:50:08.349Z,17.90
2018-08-09T14:55:08.137Z,18.50
2018-08-09T15:00:12.301Z,18.80
2018-08-09T15:05:10.804Z,18.70
2018-08-09T15:07:40.942Z,19.00
2018-08-09T15:37:45.764Z,18.50
2018-08-09T15:42:45.239Z,18.20
2018-08-09T15:52:48.296Z,18.10
2018-08-09T15:55:18.623Z,18.00
2018-08-09T15:57:48.196Z,18.30
2018-08-09T16:00:22.653Z,18.50
2018-08-09T16:05:25.043Z,20.10
2018-08-09T16:07:54.412Z,20.20
2018-08-09T16:10:23.987Z,19.30
2018-08-09T16:12:53.326Z,19.50
2018-08-09T16:15:22.928Z,19.20
2018-08-09T16:23:14.899Z,20.00
2018-08-09T16:25:44.259Z,19.90
2018-08-09T16:30:42.788Z,19.30
2018-08-09T16:33:12.214Z,18.60
2018-08-09T16:36:09.408Z,19.00
2018-08-09T16:38:42.006Z,19.30
2018-08-09T16:41:17.946Z,19.10
2018-08-09T17:29:22.628Z,17.50
2018-08-09T17:31:53.719Z,17.50
2018-08-09T17:42:07.017Z,17.30
2018-08-09T17:44:36.854Z,17.20
2018-08-09T18:04:37.512Z,18.20
2018-08-09T18:09:37.701Z,18.00
2018-08-09T18:14:50.248Z,17.80
2018-08-09T18:24:56.364Z,17.60
2018-08-09T18:37:21.336Z,17.20
2018-08-09T18:49:49.178Z,16.90
2018-08-09T18:52:18.527Z,16.90
2018-08-09T19:14:39.570Z,16.90
2018-08-09T19:17:10.174Z,16.80
2018-08-09T19:34:33.387Z,16.90
2018-08-09T19:37:02.946Z,16.90
2018-08-09T20:01:52.924Z,17.00
2018-08-09T20:09:20.622Z,17.10
2018-08-09T20:21:45.450Z,16.70
2018-08-09T20:24:14.838Z,16.60
2018-08-09T20:26:48.846Z,16.50
2018-08-09T20:39:14.684Z,16.20
2018-08-09T20:41:44.114Z,16.10
2018-08-09T22:41:35.129Z,16.00
2018-08-09T23:48:33.359Z,13.30
